createdAt,value
2022-12-01T00:00:26.629Z,96.86
2022-12-01T00:02:48.960Z,96.90
2022-12-01T00:05:11.370Z,96.37
2022-12-01T00:07:33.710Z,96.91
2022-12-01T00:10:14.587Z,96.43
2022-12-01T00:12:43.487Z,96.62
2022-12-01T00:15:06.280Z,96.34
2022-12-01T00:17:30.209Z,96.82
2022-12-01T00:19:52.490Z,96.42
2022-12-01T00:22:14.850Z,96.33
2022-12-01T00:24:37.121Z,96.71
2022-12-01T00:26:59.444Z,96.44
2022-12-01T00:29:21.731Z,96.44
2022-12-01T00:31:44.082Z,96.17
2022-12-01T00:34:11.028Z,96.48
2022-12-01T00:36:33.877Z,96.09
2022-12-01T00:38:56.395Z,95.84
2022-12-01T00:41:18.792Z,96.25
2022-12-01T00:43:41.142Z,95.98
2022-12-01T00:46:03.809Z,95.71
2022-12-01T00:48:26.223Z,95.98
2022-12-01T00:50:50.117Z,95.90
2022-12-01T00:53:12.430Z,95.95
2022-12-01T00:55:34.740Z,95.58
2022-12-01T00:57:57.043Z,95.53
2022-12-01T01:00:19.622Z,95.52
2022-12-01T01:02:42.010Z,95.73
2022-12-01T01:05:04.507Z,95.66
2022-12-01T01:07:26.892Z,95.54
2022-12-01T01:09:49.425Z,95.43
2022-12-01T01:12:11.865Z,95.54
2022-12-01T01:14:34.237Z,95.35
2022-12-01T01:16:56.622Z,94.98
2022-12-01T01:19:18.975Z,95.29
2022-12-01T01:21:41.353Z,95.24
2022-12-01T01:24:03.870Z,95.10
2022-12-01T01:26:29.531Z,95.31
2022-12-01T01:28:52.096Z,95.46
2022-12-01T01:31:17.967Z,95.25
2022-12-01T01:33:40.375Z,95.24
2022-12-01T01:36:02.873Z,95.62
2022-12-01T01:38:25.208Z,95.68
2022-12-01T01:40:47.528Z,95.85
2022-12-01T01:43:17.672Z,95.08
2022-12-01T01:45:39.994Z,95.55
2022-12-01T01:48:03.775Z,95.50
2022-12-01T01:50:27.298Z,95.59
2022-12-01T01:53:03.439Z,95.27
2022-12-01T01:55:25.746Z,94.91
2022-12-01T01:57:48.076Z,95.03
2022-12-01T02:00:16.402Z,94.45
2022-12-01T02:02:43.558Z,94.37
2022-12-01T02:05:11.097Z,94.58
2022-12-01T02:07:33.575Z,94.07
2022-12-01T02:09:56.210Z,94.31
2022-12-01T02:12:24.066Z,94.17
2022-12-01T02:15:14.208Z,94.00
2022-12-01T02:18:02.408Z,93.73
2022-12-01T02:20:38.985Z,94.16
2022-12-01T02:23:44.492Z,94.22
2022-12-01T02:26:50.190Z,94.10
2022-12-01T02:29:38.406Z,94.08
2022-12-01T02:32:02.037Z,94.38
2022-12-01T02:34:54.318Z,94.07
2022-12-01T02:37:47.700Z,94.41
2022-12-01T02:40:30.507Z,94.33
2022-12-01T02:43:30.332Z,93.98
2022-12-01T02:46:00.525Z,93.80
2022-12-01T02:48:34.299Z,94.05
2022-12-01T02:50:58.910Z,94.14
2022-12-01T02:53:21.604Z,94.17
2022-12-01T02:55:52.852Z,93.64
2022-12-01T02:58:15.344Z,93.94
2022-12-01T03:00:37.617Z,93.97
2022-12-01T03:03:11.933Z,93.75
2022-12-01T03:05:52.068Z,93.69
2022-12-01T03:08:35.590Z,93.34
2022-12-01T03:10:58.292Z,93.53
2022-12-01T03:13:51.515Z,93.60
2022-12-01T03:16:40.424Z,93.85
2022-12-01T03:19:32.722Z,93.34
2022-12-01T03:22:01.938Z,93.62
2022-12-01T03:24:25.700Z,93.48
2022-12-01T03:26:51.897Z,92.72
2022-12-01T03:29:18.039Z,92.18
2022-12-01T03:31:45.809Z,91.98
2022-12-01T03:34:14.261Z,92.01
2022-12-01T03:36:41.119Z,92.24
2022-12-01T03:39:07.091Z,91.93
2022-12-01T03:41:35.491Z,92.61
2022-12-01T03:44:08.942Z,92.67
2022-12-01T03:46:56.891Z,92.28
2022-12-01T03:49:19.212Z,92.41
2022-12-01T03:51:50.624Z,92.51
2022-12-01T03:54:21.554Z,92.54
2022-12-01T03:56:51.205Z,92.09
2022-12-01T03:59:13.473Z,92.25
2022-12-01T04:01:35.893Z,92.72
2022-12-01T04:04:08.016Z,92.13
2022-12-01T04:06:30.300Z,92.48
2022-12-01T04:08:52.592Z,92.08
2022-12-01T04:11:35.123Z,92.67
2022-12-01T04:13:57.416Z,92.73
2022-12-01T04:16:19.787Z,92.59
2022-12-01T04:18:42.097Z,92.71
2022-12-01T04:21:04.580Z,92.94
2022-12-01T04:23:45.658Z,92.12
2022-12-01T04:26:12.641Z,92.90
2022-12-01T04:28:37.944Z,92.97
2022-12-01T04:31:00.333Z,92.87
2022-12-01T04:33:22.685Z,92.65
2022-12-01T04:35:44.956Z,92.55
2022-12-01T04:38:07.264Z,92.83
2022-12-01T04:40:29.543Z,93.00
2022-12-01T04:42:51.819Z,92.30
2022-12-01T04:45:14.142Z,92.41
2022-12-01T04:47:36.446Z,92.35
2022-12-01T04:49:58.816Z,92.19
2022-12-01T04:52:21.107Z,92.37
2022-12-01T04:54:43.396Z,92.05
2022-12-01T04:57:05.782Z,92.26
2022-12-01T04:59:28.058Z,92.45
2022-12-01T05:01:50.528Z,92.02
2022-12-01T05:04:13.565Z,92.05
2022-12-01T05:06:35.945Z,92.18
2022-12-01T05:08:59.972Z,91.91
2022-12-01T05:11:23.812Z,92.17
2022-12-01T05:13:47.297Z,91.84
2022-12-01T05:16:24.217Z,92.29
2022-12-01T05:18:50.886Z,91.98
2022-12-01T05:21:13.190Z,92.31
2022-12-01T05:23:37.039Z,92.04
2022-12-01T05:25:59.463Z,91.60
2022-12-01T05:28:23.229Z,91.54
2022-12-01T05:30:45.554Z,91.45
2022-12-01T05:33:07.920Z,91.50
2022-12-01T05:35:30.267Z,91.75
2022-12-01T05:37:52.585Z,91.51
2022-12-01T05:40:14.932Z,91.78
2022-12-01T05:42:37.242Z,91.04
2022-12-01T05:44:59.516Z,91.61
2022-12-01T05:47:21.802Z,91.59
2022-12-01T05:49:44.094Z,91.35
2022-12-01T05:52:06.402Z,91.25
2022-12-01T05:54:30.486Z,91.27
2022-12-01T05:56:52.811Z,91.57
2022-12-01T05:59:15.116Z,90.82
2022-12-01T06:01:37.431Z,91.87
2022-12-01T06:03:59.817Z,91.61
2022-12-01T06:06:22.447Z,91.31
2022-12-01T06:08:44.721Z,91.74
2022-12-01T06:11:07.046Z,91.60
2022-12-01T06:13:29.338Z,91.75
2022-12-01T06:16:03.244Z,91.67
2022-12-01T06:18:26.835Z,91.90
2022-12-01T06:20:49.124Z,91.67
2022-12-01T06:23:11.417Z,91.75
2022-12-01T06:25:33.803Z,91.87
2022-12-01T06:27:59.824Z,91.73
2022-12-01T06:30:22.129Z,91.79
2022-12-01T06:32:44.436Z,91.69
2022-12-01T06:35:07.320Z,92.22
2022-12-01T06:37:29.605Z,91.64
2022-12-01T06:39:52.647Z,91.99
2022-12-01T06:42:15.383Z,91.90
2022-12-01T06:44:38.081Z,92.25
2022-12-01T06:47:00.396Z,92.17
2022-12-01T06:49:22.692Z,91.91
2022-12-01T06:51:45.263Z,91.87
2022-12-01T06:54:07.822Z,92.44
2022-12-01T06:56:30.170Z,92.16
2022-12-01T06:58:53.044Z,91.97
2022-12-01T07:01:16.059Z,92.42
2022-12-01T07:03:39.161Z,92.07
2022-12-01T07:06:01.851Z,92.25
2022-12-01T07:08:24.808Z,91.96
2022-12-01T07:10:50.343Z,92.31
2022-12-01T07:13:12.635Z,92.15
2022-12-01T07:15:34.921Z,92.33
2022-12-01T07:17:57.295Z,92.15
2022-12-01T07:20:19.580Z,92.07
2022-12-01T07:22:43.111Z,92.05
2022-12-01T07:25:06.756Z,92.19
2022-12-01T07:27:32.307Z,92.02
2022-12-01T07:29:54.576Z,92.19
2022-12-01T07:32:16.943Z,91.55
2022-12-01T07:34:39.283Z,91.63
2022-12-01T07:37:01.601Z,92.38
2022-12-01T07:39:23.885Z,91.91
2022-12-01T07:41:46.182Z,92.08
2022-12-01T07:44:10.870Z,91.03
2022-12-01T07:46:26.307Z,91.95
2022-12-01T07:48:30.243Z,91.47
2022-12-01T07:50:32.178Z,91.91
2022-12-01T07:52:34.634Z,91.55
2022-12-01T07:54:36.592Z,91.64
2022-12-01T07:56:38.584Z,92.05
2022-12-01T07:58:40.576Z,91.34
2022-12-01T08:00:42.640Z,91.96
2022-12-01T08:03:03.392Z,91.93
2022-12-01T08:05:24.115Z,91.59
2022-12-01T08:07:46.467Z,91.46
2022-12-01T08:10:09.073Z,91.87
2022-12-01T08:12:31.398Z,91.18
2022-12-01T08:14:53.771Z,91.09
2022-12-01T08:17:16.099Z,90.93
2022-12-01T08:19:38.423Z,91.32
2022-12-01T08:22:00.702Z,91.28
2022-12-01T08:24:23.151Z,91.43
2022-12-01T08:26:45.476Z,91.35
2022-12-01T08:29:07.785Z,91.40
2022-12-01T08:31:33.160Z,91.28
2022-12-01T08:33:55.723Z,91.81
2022-12-01T08:36:18.321Z,91.80
2022-12-01T08:38:43.184Z,91.32
2022-12-01T08:41:07.799Z,91.89
2022-12-01T08:43:55.786Z,91.20
2022-12-01T08:46:12.991Z,91.51
2022-12-01T08:48:35.748Z,91.12
2022-12-01T08:51:15.753Z,91.15
2022-12-01T08:53:45.333Z,90.98
2022-12-01T08:56:17.919Z,90.80
2022-12-01T08:58:40.234Z,90.53
2022-12-01T09:01:10.498Z,90.82
2022-12-01T09:03:33.842Z,90.49
2022-12-01T09:06:05.199Z,90.96
2022-12-01T09:08:34.164Z,90.83
2022-12-01T09:10:56.449Z,91.42
2022-12-01T09:13:18.793Z,90.89
2022-12-01T09:15:41.092Z,91.49
2022-12-01T09:18:03.379Z,91.05
2022-12-01T09:20:25.702Z,91.07
2022-12-01T09:22:48.002Z,90.30
2022-12-01T09:25:14.776Z,91.34
2022-12-01T09:27:37.076Z,89.84
2022-12-01T09:29:59.378Z,89.71
2022-12-01T09:32:21.632Z,89.53
2022-12-01T09:34:43.922Z,89.78
2022-12-01T09:37:06.973Z,89.73
2022-12-01T09:39:29.795Z,89.83
2022-12-01T09:42:10.784Z,89.68
2022-12-01T09:44:41.809Z,89.51
2022-12-01T09:47:11.640Z,89.46
2022-12-01T09:50:00.945Z,88.78
2022-12-01T09:52:25.264Z,89.04
2022-12-01T09:54:47.794Z,89.23
2022-12-01T09:57:35.381Z,89.35
2022-12-01T09:59:41.775Z,89.32
2022-12-01T10:01:46.736Z,89.94
2022-12-01T10:03:56.169Z,89.97
2022-12-01T10:06:27.430Z,89.87
2022-12-01T10:08:36.202Z,89.69
2022-12-01T10:10:49.331Z,89.92
2022-12-01T10:12:52.231Z,90.50
2022-12-01T10:15:22.279Z,89.94
2022-12-01T10:17:57.220Z,89.86
2022-12-01T10:20:40.355Z,90.07
2022-12-01T10:22:49.558Z,90.03
2022-12-01T10:25:22.811Z,90.08
2022-12-01T10:27:38.819Z,89.89
2022-12-01T10:30:24.768Z,89.75
2022-12-01T10:32:38.791Z,90.11
2022-12-01T10:34:41.909Z,90.27
2022-12-01T10:36:44.771Z,90.09
2022-12-01T10:38:46.897Z,90.14
2022-12-01T10:40:50.879Z,90.02
2022-12-01T10:42:53.217Z,90.43
2022-12-01T10:45:00.863Z,90.59
2022-12-01T10:47:03.478Z,90.10
2022-12-01T10:49:11.963Z,90.27
2022-12-01T10:51:17.103Z,90.29
2022-12-01T10:53:23.679Z,90.12
2022-12-01T10:55:30.685Z,90.67
2022-12-01T10:57:33.680Z,90.62
2022-12-01T11:00:03.094Z,90.75
2022-12-01T11:02:14.297Z,90.71
2022-12-01T11:04:45.187Z,90.88
2022-12-01T11:06:51.125Z,91.50
2022-12-01T11:09:02.722Z,91.28
2022-12-01T11:11:06.298Z,91.27
2022-12-01T11:13:22.870Z,91.02
2022-12-01T11:15:32.468Z,91.18
2022-12-01T11:17:44.703Z,90.75
2022-12-01T11:19:47.587Z,90.71
2022-12-01T11:21:53.401Z,91.56
2022-12-01T11:23:56.708Z,90.90
2022-12-01T11:26:05.380Z,91.50
2022-12-01T11:28:09.181Z,91.32
2022-12-01T11:30:26.459Z,91.39
2022-12-01T11:32:35.434Z,91.60
2022-12-01T11:34:38.417Z,91.79
2022-12-01T11:36:47.291Z,91.60
2022-12-01T11:38:50.693Z,92.06
2022-12-01T11:40:55.162Z,91.71
2022-12-01T11:43:01.096Z,91.87
2022-12-01T11:45:21.683Z,91.54
2022-12-01T11:47:26.181Z,91.85
2022-12-01T11:49:30.152Z,91.90
2022-12-01T11:51:37.695Z,92.04
2022-12-01T11:53:44.058Z,91.90
2022-12-01T11:55:48.784Z,92.03
2022-12-01T11:57:54.957Z,91.62
2022-12-01T11:59:57.795Z,91.89
2022-12-01T12:02:30.782Z,92.67
2022-12-01T12:05:01.513Z,92.85
2022-12-01T12:07:43.173Z,93.05
2022-12-01T12:10:08.392Z,92.48
2022-12-01T12:12:21.114Z,92.80
2022-12-01T12:14:38.124Z,92.98
2022-12-01T12:17:16.249Z,93.28
2022-12-01T12:20:06.281Z,93.26
2022-12-01T12:22:26.590Z,93.36
2022-12-01T12:24:59.672Z,93.77
2022-12-01T12:27:58.005Z,93.74
2022-12-01T12:30:18.927Z,93.60
2022-12-01T12:32:57.686Z,93.77
2022-12-01T12:35:06.232Z,93.44
2022-12-01T12:37:48.262Z,94.14
2022-12-01T12:40:25.720Z,94.22
2022-12-01T12:42:50.457Z,94.36
2022-12-01T12:45:20.116Z,94.41
2022-12-01T12:48:07.956Z,94.16
2022-12-01T12:50:50.730Z,94.26
2022-12-01T12:53:01.597Z,94.42
2022-12-01T12:55:26.599Z,94.17
2022-12-01T12:57:35.667Z,94.06
2022-12-01T12:59:42.900Z,94.23
2022-12-01T13:02:06.591Z,93.94
2022-12-01T13:04:58.589Z,94.30
2022-12-01T13:07:08.536Z,94.71
2022-12-01T13:09:27.154Z,94.40
2022-12-01T13:12:15.929Z,94.48
2022-12-01T13:14:36.766Z,94.73
2022-12-01T13:16:43.082Z,94.54
2022-12-01T13:18:51.788Z,94.57
2022-12-01T13:20:55.781Z,94.76
2022-12-01T13:22:59.391Z,94.67
2022-12-01T13:25:02.544Z,94.67
2022-12-01T13:27:19.733Z,94.30
2022-12-01T13:29:24.049Z,94.79
2022-12-01T13:31:26.409Z,94.90
2022-12-01T13:33:28.742Z,94.98
2022-12-01T13:35:36.882Z,94.77
2022-12-01T13:37:39.172Z,95.13
2022-12-01T13:39:41.584Z,95.20
2022-12-01T13:41:44.597Z,94.97
2022-12-01T13:44:22.638Z,95.49
2022-12-01T13:46:42.475Z,94.96
2022-12-01T13:48:47.704Z,94.69
2022-12-01T13:50:59.168Z,94.72
2022-12-01T13:53:19.783Z,94.74
2022-12-01T13:55:28.032Z,95.00
2022-12-01T13:57:49.372Z,95.10
2022-12-01T14:00:00.536Z,94.88
2022-12-01T14:02:20.749Z,94.55
2022-12-01T14:04:26.159Z,95.17
2022-12-01T14:06:31.236Z,95.28
2022-12-01T14:08:56.243Z,95.17
2022-12-01T14:11:25.867Z,95.14
2022-12-01T14:14:00.260Z,94.94
2022-12-01T14:16:22.791Z,94.93
2022-12-01T14:18:57.602Z,95.17
2022-12-01T14:21:44.876Z,95.50
2022-12-01T14:24:07.450Z,95.02
2022-12-01T14:26:30.348Z,95.42
2022-12-01T14:28:55.772Z,95.10
2022-12-01T14:31:18.176Z,95.42
2022-12-01T14:33:48.958Z,95.42
2022-12-01T14:36:17.160Z,95.15
2022-12-01T14:38:39.453Z,94.75
2022-12-01T14:41:26.268Z,94.67
2022-12-01T14:44:04.837Z,95.01
2022-12-01T14:46:27.327Z,94.88
2022-12-01T14:48:49.675Z,94.77
2022-12-01T14:51:27.633Z,94.78
2022-12-01T14:53:50.256Z,94.89
2022-12-01T14:56:16.676Z,94.47
2022-12-01T14:58:39.013Z,94.53
2022-12-01T15:01:08.474Z,93.97
2022-12-01T15:03:43.019Z,92.54
2022-12-01T15:06:05.682Z,91.05
2022-12-01T15:09:04.146Z,89.45
2022-12-01T15:11:25.590Z,89.09
2022-12-01T15:13:51.032Z,89.37
2022-12-01T15:16:19.329Z,88.69
2022-12-01T15:18:41.690Z,88.37
2022-12-01T15:21:16.427Z,86.67
2022-12-01T15:24:03.397Z,85.10
2022-12-01T15:26:34.774Z,86.51
2022-12-01T15:29:13.188Z,84.64
2022-12-01T15:31:35.525Z,86.03
2022-12-01T15:33:57.885Z,85.63
2022-12-01T15:36:20.203Z,86.63
2022-12-01T15:38:42.932Z,86.95
2022-12-01T15:43:59.198Z,86.17
2022-12-01T15:46:30.835Z,85.98
2022-12-01T15:49:18.999Z,84.67
2022-12-01T15:51:41.283Z,85.57
2022-12-01T15:54:03.656Z,85.60
2022-12-01T15:56:36.206Z,84.78
2022-12-01T15:59:29.025Z,84.85
2022-12-01T16:01:51.334Z,85.70
2022-12-01T16:04:28.281Z,83.97
2022-12-01T16:07:09.809Z,84.09
2022-12-01T16:09:54.926Z,85.12
2022-12-01T16:12:17.699Z,84.67
2022-12-01T16:15:13.803Z,83.35
2022-12-01T16:17:49.505Z,84.17
2022-12-01T16:20:22.051Z,83.36
2022-12-01T16:22:51.155Z,84.47
2022-12-01T16:25:34.651Z,83.82
2022-12-01T16:27:56.973Z,84.83
2022-12-01T16:30:21.977Z,85.05
2022-12-01T16:32:44.394Z,85.14
2022-12-01T16:35:24.411Z,84.20
2022-12-01T16:37:46.734Z,84.90
2022-12-01T16:40:11.527Z,84.99
2022-12-01T16:42:33.809Z,85.10
2022-12-01T16:44:56.126Z,85.20
2022-12-01T16:47:23.931Z,85.61
2022-12-01T16:49:46.467Z,85.76
2022-12-01T16:52:36.466Z,85.86
2022-12-01T16:54:51.362Z,86.08
2022-12-01T16:57:13.986Z,86.36
2022-12-01T16:59:36.361Z,86.81
2022-12-01T17:01:59.395Z,86.95
2022-12-01T17:04:21.689Z,87.19
2022-12-01T17:06:44.015Z,87.37
2022-12-01T17:09:06.448Z,87.70
2022-12-01T17:11:28.772Z,87.88
2022-12-01T17:13:51.136Z,87.48
2022-12-01T17:16:18.142Z,88.35
2022-12-01T17:18:41.230Z,88.67
2022-12-01T17:21:09.559Z,88.44
2022-12-01T17:23:33.057Z,88.48
2022-12-01T17:25:55.369Z,88.35
2022-12-01T17:28:17.929Z,88.89
2022-12-01T17:30:40.334Z,89.01
2022-12-01T17:33:02.684Z,89.29
2022-12-01T17:35:24.970Z,89.14
2022-12-01T17:37:47.307Z,88.63
2022-12-01T17:40:13.896Z,89.20
2022-12-01T17:42:36.209Z,89.02
2022-12-01T17:44:58.870Z,89.83
2022-12-01T17:47:21.193Z,89.61
2022-12-01T17:49:43.580Z,89.40
2022-12-01T17:52:06.795Z,89.97
2022-12-01T17:54:29.032Z,89.98
2022-12-01T17:56:51.424Z,90.28
2022-12-01T17:59:13.978Z,89.63
2022-12-01T18:01:36.405Z,90.14
2022-12-01T18:03:59.115Z,90.16
2022-12-01T18:06:21.486Z,90.12
2022-12-01T18:08:43.876Z,90.15
2022-12-01T18:11:08.017Z,90.31
2022-12-01T18:13:30.353Z,90.45
2022-12-01T18:15:52.748Z,91.16
2022-12-01T18:18:15.067Z,90.73
2022-12-01T18:20:41.694Z,90.70
2022-12-01T18:23:03.978Z,90.81
2022-12-01T18:25:26.280Z,90.77
2022-12-01T18:27:48.591Z,91.39
2022-12-01T18:30:11.730Z,91.41
2022-12-01T18:32:34.033Z,91.15
2022-12-01T18:34:56.337Z,91.82
2022-12-01T18:37:18.646Z,91.37
2022-12-01T18:39:40.969Z,91.56
2022-12-01T18:42:03.285Z,91.42
2022-12-01T18:44:25.586Z,92.03
2022-12-01T18:46:47.961Z,91.87
2022-12-01T18:49:10.320Z,91.62
2022-12-01T18:51:37.078Z,91.82
2022-12-01T18:54:00.409Z,91.89
2022-12-01T18:56:22.739Z,91.82
2022-12-01T18:58:45.109Z,91.89
2022-12-01T19:01:25.932Z,92.10
2022-12-01T19:03:48.285Z,91.84
2022-12-01T19:06:12.638Z,92.24
2022-12-01T19:08:34.955Z,92.65
2022-12-01T19:11:01.470Z,93.05
2022-12-01T19:13:23.769Z,93.28
2022-12-01T19:15:46.103Z,94.16
2022-12-01T19:18:08.459Z,94.01
2022-12-01T19:20:30.809Z,93.82
2022-12-01T19:22:53.159Z,94.31
2022-12-01T19:25:15.601Z,94.94
2022-12-01T19:27:38.219Z,94.61
2022-12-01T19:30:00.511Z,94.94
2022-12-01T19:32:23.037Z,94.65
2022-12-01T19:34:45.597Z,96.47
2022-12-01T19:37:11.075Z,95.77
2022-12-01T19:39:33.385Z,95.71
2022-12-01T19:41:57.361Z,95.65
2022-12-01T19:44:19.675Z,96.23
2022-12-01T19:46:42.048Z,96.61
2022-12-01T19:49:05.016Z,96.17
2022-12-01T19:51:38.291Z,96.00
2022-12-01T19:54:00.700Z,96.34
2022-12-01T19:56:23.213Z,96.60
2022-12-01T19:58:45.622Z,97.17
2022-12-01T20:01:13.144Z,97.82
2022-12-01T20:03:35.857Z,98.13
2022-12-01T20:06:06.902Z,97.27
2022-12-01T20:08:29.188Z,98.26
2022-12-01T20:10:51.741Z,97.41
2022-12-01T20:13:14.082Z,98.01
2022-12-01T20:15:36.447Z,98.03
2022-12-01T20:17:58.736Z,97.97
2022-12-01T20:20:21.086Z,97.99
2022-12-01T20:22:43.358Z,98.61
2022-12-01T20:25:06.550Z,98.94
2022-12-01T20:27:29.199Z,98.67
2022-12-01T20:29:51.520Z,98.81
2022-12-01T20:32:13.950Z,98.37
2022-12-01T20:34:36.592Z,98.63
2022-12-01T20:36:59.218Z,98.92
2022-12-01T20:39:21.728Z,98.65
2022-12-01T20:41:44.595Z,98.55
2022-12-01T20:44:07.877Z,98.76
2022-12-01T20:46:30.467Z,98.72
2022-12-01T20:48:52.821Z,98.29
2022-12-01T20:51:15.274Z,98.39
2022-12-01T20:53:37.574Z,98.20
2022-12-01T20:56:05.407Z,98.36
2022-12-01T20:58:27.748Z,98.11
2022-12-01T21:00:50.158Z,98.30
2022-12-01T21:03:12.957Z,97.96
2022-12-01T21:05:37.940Z,98.74
2022-12-01T21:08:01.263Z,98.91
2022-12-01T21:10:23.656Z,98.70
2022-12-01T21:13:08.129Z,98.38
2022-12-01T21:15:31.444Z,99.00
2022-12-01T21:17:59.617Z,98.42
2022-12-01T21:20:31.030Z,98.63
2022-12-01T21:22:53.752Z,98.75
2022-12-01T21:25:22.340Z,98.35
2022-12-01T21:27:45.831Z,98.54
2022-12-01T21:30:26.386Z,98.41
2022-12-01T21:32:49.334Z,98.63
2022-12-01T21:35:25.061Z,98.24
2022-12-01T21:37:48.155Z,98.71
2022-12-01T21:40:36.778Z,98.74
2022-12-01T21:43:05.472Z,99.03
2022-12-01T21:45:30.373Z,98.46
2022-12-01T21:47:53.218Z,98.77
2022-12-01T21:50:21.104Z,99.21
2022-12-01T21:52:43.423Z,98.96
2022-12-01T21:55:14.459Z,98.57
2022-12-01T21:57:42.793Z,98.89
2022-12-01T22:00:26.679Z,98.58
2022-12-01T22:02:51.460Z,98.84
2022-12-01T22:05:42.901Z,98.91
2022-12-01T22:08:14.121Z,99.05
2022-12-01T22:11:11.673Z,98.93
2022-12-01T22:13:48.804Z,98.78
2022-12-01T22:16:30.006Z,99.63
2022-12-01T22:18:57.750Z,99.45
2022-12-01T22:21:23.144Z,99.13
2022-12-01T22:23:45.368Z,99.36
2022-12-01T22:26:21.179Z,99.36
2022-12-01T22:28:43.466Z,99.49
2022-12-01T22:31:15.763Z,99.21
2022-12-01T22:33:38.202Z,99.63
2022-12-01T22:36:00.525Z,99.82
2022-12-01T22:38:36.705Z,100.00
2022-12-01T22:41:05.689Z,99.98
2022-12-01T22:43:42.036Z,100.00
2022-12-01T22:46:27.537Z,100.00
2022-12-01T22:49:03.405Z,100.00
2022-12-01T22:51:38.500Z,100.00
2022-12-01T22:54:49.240Z,100.00
2022-12-01T22:57:33.028Z,100.00
2022-12-01T22:59:55.411Z,100.00
2022-12-01T23:02:27.401Z,100.00
2022-12-01T23:04:56.951Z,100.00
2022-12-01T23:07:36.768Z,100.00
2022-12-01T23:10:11.123Z,100.00
2022-12-01T23:12:34.516Z,100.00
2022-12-01T23:15:00.743Z,99.71
2022-12-01T23:17:31.007Z,99.43
2022-12-01T23:20:14.331Z,98.98
2022-12-01T23:22:37.950Z,98.05
2022-12-01T23:25:01.184Z,97.86
2022-12-01T23:27:23.427Z,97.02
2022-12-01T23:29:45.740Z,96.98
2022-12-01T23:32:08.047Z,96.77
2022-12-01T23:34:30.379Z,96.80
2022-12-01T23:36:52.699Z,95.85
2022-12-01T23:39:16.222Z,96.23
2022-12-01T23:41:46.515Z,95.94
2022-12-01T23:44:39.008Z,95.94
2022-12-01T23:47:01.344Z,95.63
2022-12-01T23:49:27.800Z,96.47
2022-12-01T23:51:55.047Z,96.77
2022-12-01T23:54:33.470Z,96.71
2022-12-01T23:57:01.633Z,96.60
2022-12-01T23:59:24.001Z,96.79
